createdAt,value
2022-08-29T00:01:21.854Z,1.98
2022-08-29T00:03:50.712Z,2.00
2022-08-29T00:06:19.774Z,2.30
2022-08-29T00:08:47.391Z,2.35
2022-08-29T00:11:15.649Z,2.28
2022-08-29T00:13:43.469Z,2.60
2022-08-29T00:16:11.376Z,2.15
2022-08-29T00:18:39.118Z,2.38
2022-08-29T00:21:07.133Z,1.90
2022-08-29T00:23:36.774Z,1.88
2022-08-29T00:26:04.485Z,2.33
2022-08-29T00:28:32.157Z,2.20
2022-08-29T00:30:59.847Z,1.80
2022-08-29T00:33:27.527Z,1.90
2022-08-29T00:35:55.432Z,1.83
2022-08-29T00:38:27.834Z,1.90
2022-08-29T00:40:58.450Z,1.80
2022-08-29T00:43:27.601Z,2.00
2022-08-29T00:46:02.177Z,1.98
2022-08-29T00:48:29.969Z,2.20
2022-08-29T00:51:00.389Z,2.20
2022-08-29T00:53:30.766Z,2.20
2022-08-29T00:56:00.574Z,1.90
2022-08-29T00:58:30.364Z,2.13
2022-08-29T01:00:58.536Z,2.40
2022-08-29T01:03:26.843Z,2.00
2022-08-29T01:05:54.591Z,2.08
2022-08-29T01:08:22.381Z,2.40
2022-08-29T01:11:07.835Z,1.95
2022-08-29T01:13:40.400Z,2.13
2022-08-29T01:16:08.824Z,2.28
2022-08-29T01:18:37.890Z,2.17
2022-08-29T01:21:13.214Z,2.33
2022-08-29T01:23:43.755Z,2.38
2022-08-29T01:26:13.429Z,1.90
2022-08-29T01:28:43.895Z,1.92
2022-08-29T01:31:14.122Z,2.10
2022-08-29T01:33:44.893Z,2.10
2022-08-29T01:36:15.294Z,1.80
2022-08-29T01:38:43.761Z,2.45
2022-08-29T01:41:13.923Z,2.33
2022-08-29T01:43:49.663Z,2.00
2022-08-29T01:46:19.365Z,2.22
2022-08-29T01:48:47.586Z,2.45
2022-08-29T01:51:16.795Z,2.22
2022-08-29T01:53:45.072Z,2.30
2022-08-29T01:56:16.965Z,2.38
2022-08-29T01:58:45.554Z,2.20
2022-08-29T02:01:15.242Z,2.42
2022-08-29T02:03:43.404Z,2.17
2022-08-29T02:06:10.998Z,2.10
2022-08-29T02:08:39.755Z,2.40
2022-08-29T02:11:10.052Z,2.60
2022-08-29T02:13:39.494Z,2.20
2022-08-29T02:16:08.044Z,2.10
2022-08-29T02:18:35.948Z,2.28
2022-08-29T02:21:03.669Z,2.23
2022-08-29T02:23:31.745Z,2.28
2022-08-29T02:25:59.517Z,2.42
2022-08-29T02:28:27.175Z,2.00
2022-08-29T02:30:56.670Z,2.40
2022-08-29T02:33:25.134Z,2.38
2022-08-29T02:35:54.286Z,2.60
2022-08-29T02:38:23.066Z,2.40
2022-08-29T02:40:51.787Z,2.95
2022-08-29T02:43:20.105Z,2.60
2022-08-29T02:45:48.636Z,2.58
2022-08-29T02:48:18.354Z,2.10
2022-08-29T02:50:47.773Z,2.80
2022-08-29T02:53:17.513Z,2.50
2022-08-29T02:55:45.259Z,3.13
2022-08-29T02:58:14.066Z,2.40
2022-08-29T03:00:42.434Z,2.30
2022-08-29T03:03:10.846Z,1.85
2022-08-29T03:05:40.123Z,2.28
2022-08-29T03:08:09.588Z,2.22
2022-08-29T03:10:37.892Z,2.33
2022-08-29T03:13:06.217Z,2.85
2022-08-29T03:15:34.151Z,2.83
2022-08-29T03:18:02.235Z,2.53
2022-08-29T03:20:30.033Z,2.70
2022-08-29T03:22:59.009Z,2.25
2022-08-29T03:25:26.961Z,2.30
2022-08-29T03:27:54.628Z,3.03
2022-08-29T03:30:23.967Z,2.75
2022-08-29T03:32:52.079Z,2.58
2022-08-29T03:35:19.942Z,2.47
2022-08-29T03:37:47.811Z,2.77
2022-08-29T03:40:19.341Z,2.72
2022-08-29T03:42:47.747Z,2.57
2022-08-29T03:45:17.415Z,2.78
2022-08-29T03:47:45.760Z,2.60
2022-08-29T03:50:15.088Z,2.42
2022-08-29T03:52:44.091Z,2.70
2022-08-29T03:55:12.319Z,2.88
2022-08-29T03:57:41.390Z,2.72
2022-08-29T04:00:12.135Z,2.70
2022-08-29T04:02:41.449Z,2.97
2022-08-29T04:05:10.039Z,2.97
2022-08-29T04:07:46.959Z,3.08
2022-08-29T04:10:18.312Z,2.50
2022-08-29T04:12:51.198Z,3.10
2022-08-29T04:15:21.706Z,3.05
2022-08-29T04:17:53.227Z,2.80
2022-08-29T04:20:25.126Z,2.90
2022-08-29T04:22:54.084Z,3.33
2022-08-29T04:25:22.341Z,3.03
2022-08-29T04:27:51.344Z,2.90
2022-08-29T04:30:26.048Z,2.65
2022-08-29T04:32:53.775Z,2.70
2022-08-29T04:35:21.722Z,2.83
2022-08-29T04:37:50.692Z,3.00
2022-08-29T04:40:20.340Z,2.70
2022-08-29T04:42:48.849Z,2.78
2022-08-29T04:45:20.206Z,2.90
2022-08-29T04:47:47.908Z,2.92
2022-08-29T04:50:19.160Z,2.88
2022-08-29T04:52:47.313Z,2.40
2022-08-29T04:55:19.473Z,2.60
2022-08-29T04:57:49.512Z,2.47
2022-08-29T05:00:21.135Z,2.90
2022-08-29T05:02:48.918Z,2.75
2022-08-29T05:05:17.807Z,3.08
2022-08-29T05:07:46.368Z,2.85
2022-08-29T05:10:17.238Z,2.95
2022-08-29T05:12:45.526Z,3.10
2022-08-29T05:15:14.828Z,3.13
2022-08-29T05:17:44.456Z,4.00
2022-08-29T05:20:12.797Z,3.13
2022-08-29T05:22:42.019Z,3.00
2022-08-29T05:25:14.421Z,2.80
2022-08-29T05:27:45.251Z,3.00
2022-08-29T05:30:13.139Z,3.03
2022-08-29T05:32:40.794Z,2.95
2022-08-29T05:35:10.458Z,3.15
2022-08-29T05:37:38.693Z,3.50
2022-08-29T05:40:07.108Z,3.35
2022-08-29T05:42:34.794Z,3.45
2022-08-29T05:45:04.731Z,3.35
2022-08-29T05:47:32.895Z,3.17
2022-08-29T05:50:01.030Z,3.35
2022-08-29T05:52:30.205Z,3.30
2022-08-29T05:54:57.845Z,3.47
2022-08-29T05:57:25.615Z,3.85
2022-08-29T05:59:55.175Z,3.50
2022-08-29T06:02:24.052Z,3.95
2022-08-29T06:04:52.368Z,3.88
2022-08-29T06:07:20.795Z,3.97
2022-08-29T06:09:52.793Z,3.85
2022-08-29T06:12:21.246Z,4.10
2022-08-29T06:14:51.988Z,3.80
2022-08-29T06:17:19.728Z,3.88
2022-08-29T06:19:51.175Z,4.22
2022-08-29T06:22:19.795Z,4.50
2022-08-29T06:24:49.219Z,3.92
2022-08-29T06:27:16.864Z,4.13
2022-08-29T06:29:44.528Z,4.00
2022-08-29T06:32:12.399Z,4.13
2022-08-29T06:34:40.108Z,4.25
2022-08-29T06:37:07.816Z,4.60
2022-08-29T06:39:35.788Z,4.63
2022-08-29T06:42:05.054Z,4.45
2022-08-29T06:44:32.864Z,4.22
2022-08-29T06:47:00.677Z,4.38
2022-08-29T06:49:28.624Z,4.00
2022-08-29T06:51:58.576Z,4.03
2022-08-29T06:54:28.559Z,4.03
2022-08-29T06:56:57.176Z,4.00
2022-08-29T06:59:26.694Z,4.10
2022-08-29T07:01:55.288Z,3.92
2022-08-29T07:04:23.228Z,3.80
2022-08-29T07:06:54.506Z,3.97
2022-08-29T07:09:22.176Z,4.13
2022-08-29T07:11:49.788Z,4.38
2022-08-29T07:14:17.458Z,4.65
2022-08-29T07:16:46.793Z,4.50
2022-08-29T07:19:14.510Z,4.72
2022-08-29T07:21:42.218Z,4.32
2022-08-29T07:24:10.029Z,4.28
2022-08-29T07:26:41.305Z,3.88
2022-08-29T07:29:11.620Z,3.63
2022-08-29T07:31:40.002Z,3.47
2022-08-29T07:34:09.275Z,4.03
2022-08-29T07:36:37.390Z,3.42
2022-08-29T07:39:08.089Z,3.58
2022-08-29T07:41:35.977Z,3.53
2022-08-29T07:44:04.000Z,3.67
2022-08-29T07:46:31.912Z,3.20
2022-08-29T07:49:00.359Z,3.37
2022-08-29T07:51:30.134Z,3.43
2022-08-29T07:53:59.032Z,3.33
2022-08-29T07:56:28.693Z,3.38
2022-08-29T07:58:57.593Z,3.30
2022-08-29T08:01:25.698Z,3.25
2022-08-29T08:03:54.046Z,3.10
2022-08-29T08:06:23.577Z,3.30
2022-08-29T08:08:52.921Z,3.25
2022-08-29T08:11:22.201Z,2.67
2022-08-29T08:13:50.240Z,3.10
2022-08-29T08:16:20.445Z,2.95
2022-08-29T08:18:48.821Z,3.65
2022-08-29T08:21:16.653Z,3.03
2022-08-29T08:23:44.862Z,3.10
2022-08-29T08:26:15.072Z,3.13
2022-08-29T08:28:43.920Z,2.57
2022-08-29T08:31:14.275Z,2.65
2022-08-29T08:33:42.498Z,2.17
2022-08-29T08:36:14.645Z,2.50
2022-08-29T08:38:42.491Z,2.55
2022-08-29T08:41:26.883Z,2.47
2022-08-29T08:43:58.174Z,2.60
2022-08-29T08:46:30.408Z,2.40
2022-08-29T08:49:02.033Z,2.28
2022-08-29T08:51:33.064Z,2.90
2022-08-29T08:54:03.891Z,2.22
2022-08-29T08:56:36.593Z,2.00
2022-08-29T08:59:08.567Z,2.10
2022-08-29T09:02:58.419Z,2.00
2022-08-29T09:05:36.002Z,3.03
2022-08-29T09:08:12.173Z,3.10
2022-08-29T09:10:47.681Z,2.35
2022-08-29T09:13:22.610Z,2.53
2022-08-29T09:15:53.943Z,2.40
2022-08-29T09:18:29.658Z,2.10
2022-08-29T09:20:59.630Z,2.30
2022-08-29T09:23:32.415Z,1.77
2022-08-29T09:26:00.247Z,1.60
2022-08-29T09:28:30.076Z,1.70
2022-08-29T09:31:26.592Z,2.13
2022-08-29T09:33:58.106Z,1.57
2022-08-29T09:36:42.126Z,2.30
2022-08-29T09:39:19.756Z,1.52
2022-08-29T09:41:50.038Z,1.60
2022-08-29T09:44:22.703Z,2.00
2022-08-29T09:47:06.729Z,1.40
2022-08-29T09:49:37.369Z,1.80
2022-08-29T09:52:14.305Z,1.15
2022-08-29T09:54:42.681Z,1.05
2022-08-29T09:57:14.916Z,1.00
2022-08-29T09:59:45.291Z,1.75
2022-08-29T10:02:19.757Z,1.23
2022-08-29T10:04:52.800Z,1.00
2022-08-29T10:07:23.259Z,1.33
2022-08-29T10:09:55.956Z,1.17
2022-08-29T10:12:30.255Z,0.90
2022-08-29T10:15:02.242Z,1.15
2022-08-29T10:17:56.265Z,0.85
2022-08-29T10:20:30.154Z,1.20
2022-08-29T10:23:00.772Z,4.43
2022-08-29T10:25:35.732Z,1.23
2022-08-29T10:28:08.044Z,1.10
2022-08-29T10:30:43.269Z,1.00
2022-08-29T10:33:18.040Z,0.90
2022-08-29T10:35:54.544Z,0.90
2022-08-29T10:38:35.083Z,1.40
2022-08-29T10:41:05.461Z,1.00
2022-08-29T10:43:40.020Z,1.30
2022-08-29T10:46:22.131Z,1.35
2022-08-29T10:50:34.081Z,1.25
2022-08-29T12:08:37.570Z,1.10
2022-08-29T12:11:06.465Z,1.40
2022-08-29T12:14:03.630Z,1.13
2022-08-29T12:16:48.210Z,1.52
2022-08-29T12:19:50.796Z,1.20
2022-08-29T12:22:47.933Z,1.27
2022-08-29T12:25:33.558Z,1.30
2022-08-29T12:28:06.203Z,1.80
2022-08-29T12:30:38.926Z,1.65
2022-08-29T12:33:14.840Z,1.35
2022-08-29T12:36:02.061Z,1.33
2022-08-29T12:38:38.779Z,1.20
2022-08-29T12:41:27.418Z,1.20
2022-08-29T12:43:57.246Z,1.20
2022-08-29T12:46:27.377Z,1.17
2022-08-29T12:49:07.403Z,1.10
2022-08-29T12:51:38.278Z,1.15
2022-08-29T12:54:06.804Z,1.17
2022-08-29T12:56:35.955Z,0.88
2022-08-29T13:00:16.491Z,1.10
2022-08-29T13:02:57.094Z,1.23
2022-08-29T13:05:29.016Z,0.90
2022-08-29T13:08:00.184Z,1.03
2022-08-29T13:10:28.930Z,0.90
2022-08-29T13:13:05.912Z,0.90
2022-08-29T13:15:35.638Z,0.80
2022-08-29T13:18:03.424Z,0.80
2022-08-29T13:20:45.938Z,0.77
2022-08-29T13:23:20.699Z,1.05
2022-08-29T13:25:51.488Z,0.88
2022-08-29T13:28:24.899Z,1.00
2022-08-29T13:31:10.321Z,1.08
2022-08-29T13:33:39.527Z,0.70
2022-08-29T13:36:32.106Z,0.93
2022-08-29T13:39:28.131Z,0.88
2022-08-29T13:42:15.648Z,0.98
2022-08-29T13:45:07.751Z,0.77
2022-08-29T13:47:52.067Z,1.23
2022-08-29T13:50:20.048Z,0.90
2022-08-29T13:52:47.805Z,0.80
2022-08-29T13:55:15.476Z,0.80
2022-08-29T13:57:44.869Z,0.90
2022-08-29T14:00:13.668Z,0.95
2022-08-29T14:02:45.265Z,1.02
2022-08-29T14:05:14.464Z,0.70
2022-08-29T14:07:43.880Z,0.75
2022-08-29T14:10:14.268Z,0.70
2022-08-29T14:12:41.864Z,0.80
2022-08-29T14:15:11.994Z,0.70
2022-08-29T14:17:40.413Z,0.57
2022-08-29T14:20:11.054Z,1.10
2022-08-29T14:22:39.077Z,0.80
2022-08-29T14:25:08.182Z,0.77
2022-08-29T14:27:36.873Z,0.60
2022-08-29T14:30:05.786Z,0.70
2022-08-29T14:32:33.430Z,0.90
2022-08-29T14:35:01.030Z,1.00
2022-08-29T14:37:30.034Z,0.70
2022-08-29T14:39:58.119Z,1.15
2022-08-29T14:42:26.001Z,1.00
2022-08-29T14:44:53.685Z,0.80
2022-08-29T14:47:21.392Z,0.90
2022-08-29T14:49:49.001Z,0.65
2022-08-29T14:52:16.889Z,0.90
2022-08-29T14:54:46.166Z,0.90
2022-08-29T14:57:14.035Z,0.77
2022-08-29T14:59:42.083Z,1.10
2022-08-29T15:02:10.713Z,0.67
2022-08-29T15:04:38.584Z,0.85
2022-08-29T15:07:06.580Z,0.73
2022-08-29T15:09:34.721Z,1.13
2022-08-29T15:12:04.601Z,1.10
2022-08-29T15:14:34.297Z,0.80
2022-08-29T15:17:01.949Z,0.75
2022-08-29T15:22:17.832Z,1.00
2022-08-29T15:24:45.742Z,1.10
2022-08-29T15:27:14.790Z,1.00
2022-08-29T15:29:42.469Z,1.05
2022-08-29T15:32:11.574Z,0.85
2022-08-29T15:34:40.553Z,1.10
2022-08-29T15:37:10.122Z,0.90
2022-08-29T15:39:37.919Z,0.77
2022-08-29T15:42:08.465Z,0.70
2022-08-29T15:44:37.625Z,0.93
2022-08-29T15:47:06.001Z,0.87
2022-08-29T15:49:39.488Z,0.82
2022-08-29T15:52:07.173Z,0.95
2022-08-29T15:54:35.872Z,0.77
2022-08-29T15:57:03.787Z,0.73
2022-08-29T15:59:56.741Z,1.10
2022-08-29T16:02:20.697Z,0.82
2022-08-29T16:04:53.599Z,0.80
2022-08-29T16:07:25.414Z,0.80
2022-08-29T16:09:56.605Z,0.70
2022-08-29T16:12:24.268Z,0.80
2022-08-29T16:15:00.417Z,1.00
2022-08-29T16:17:31.328Z,0.80
2022-08-29T16:19:59.516Z,0.80
2022-08-29T16:22:27.690Z,1.10
2022-08-29T16:24:55.809Z,1.10
2022-08-29T16:27:24.693Z,0.98
2022-08-29T16:29:53.171Z,1.10
2022-08-29T16:32:21.079Z,1.00
2022-08-29T16:34:50.824Z,0.82
2022-08-29T16:37:18.805Z,0.80
2022-08-29T16:39:46.637Z,0.77
2022-08-29T16:42:14.313Z,0.70
2022-08-29T16:44:42.422Z,0.85
2022-08-29T16:47:11.120Z,0.93
2022-08-29T16:49:38.801Z,0.57
2022-08-29T16:52:08.013Z,0.90
2022-08-29T16:54:35.874Z,0.82
2022-08-29T16:57:03.590Z,0.98
2022-08-29T16:59:31.555Z,1.20
2022-08-29T17:02:00.336Z,0.80
2022-08-29T17:04:28.592Z,1.00
2022-08-29T17:06:56.713Z,0.90
2022-08-29T17:25:28.720Z,1.65
2022-08-29T17:28:16.460Z,1.60
2022-08-29T17:30:44.219Z,1.45
2022-08-29T17:33:11.933Z,1.08
2022-08-29T17:35:39.828Z,1.35
2022-08-29T17:38:07.514Z,1.63
2022-08-29T17:40:38.422Z,2.00
2022-08-29T17:43:08.293Z,2.00
2022-08-29T17:45:37.468Z,1.60
2022-08-29T17:48:05.554Z,1.45
2022-08-29T17:50:34.329Z,2.25
2022-08-29T17:53:02.082Z,1.73
2022-08-29T17:55:30.376Z,1.80
2022-08-29T17:57:59.732Z,1.45
2022-08-29T18:00:28.660Z,1.77
2022-08-29T18:02:56.412Z,1.60
2022-08-29T18:05:24.161Z,1.30
2022-08-29T18:07:52.031Z,1.58
2022-08-29T18:10:20.500Z,1.40
2022-08-29T18:12:48.223Z,1.67
2022-08-29T18:15:17.516Z,1.40
2022-08-29T18:17:45.823Z,1.58
2022-08-29T18:20:15.615Z,1.67
2022-08-29T18:22:43.439Z,1.42
2022-08-29T18:25:11.559Z,1.30
2022-08-29T18:27:43.677Z,1.60
2022-08-29T18:30:13.472Z,1.75
2022-08-29T18:32:43.054Z,1.48
2022-08-29T18:35:11.916Z,1.52
2022-08-29T18:37:39.682Z,1.70
2022-08-29T18:40:09.269Z,1.70
2022-08-29T18:45:10.086Z,1.20
2022-08-29T18:47:37.988Z,1.48
2022-08-29T18:50:25.704Z,1.50
2022-08-29T18:52:54.742Z,1.52
2022-08-29T18:55:23.949Z,1.30
2022-08-29T18:57:52.941Z,2.25
2022-08-29T19:00:22.011Z,2.00
2022-08-29T19:05:18.989Z,2.35
2022-08-29T19:07:46.713Z,2.53
2022-08-29T19:12:41.980Z,2.13
2022-08-29T19:15:11.545Z,2.50
2022-08-29T19:17:39.344Z,2.45
2022-08-29T19:20:27.699Z,2.35
2022-08-29T19:22:56.893Z,1.95
2022-08-29T19:25:24.654Z,2.33
2022-08-29T19:27:52.426Z,2.55
2022-08-29T19:30:20.618Z,2.35
2022-08-29T19:32:48.438Z,2.40
2022-08-29T19:35:16.634Z,3.50
2022-08-29T19:37:45.205Z,1.73
2022-08-29T19:40:16.651Z,2.75
2022-08-29T19:42:45.894Z,2.65
2022-08-29T19:45:16.912Z,2.08
2022-08-29T19:47:45.166Z,1.83
2022-08-29T19:50:15.241Z,2.33
2022-08-29T19:52:43.006Z,1.98
2022-08-29T19:55:14.841Z,2.22
2022-08-29T19:57:42.686Z,1.98
2022-08-29T20:00:13.948Z,1.90
2022-08-29T20:02:42.458Z,1.90
2022-08-29T20:05:12.469Z,2.10
2022-08-29T20:12:37.901Z,2.40
2022-08-29T20:17:34.523Z,2.22
2022-08-29T20:20:12.130Z,2.05
2022-08-29T20:22:39.789Z,2.13
2022-08-29T20:25:11.522Z,2.72
2022-08-29T20:27:40.973Z,2.00
2022-08-29T20:30:11.313Z,2.10
2022-08-29T20:32:39.440Z,2.08
2022-08-29T20:35:07.949Z,2.17
2022-08-29T20:37:34.873Z,2.00
2022-08-29T20:40:02.719Z,2.22
2022-08-29T20:42:30.382Z,1.70
2022-08-29T20:44:59.976Z,1.65
2022-08-29T20:47:27.634Z,1.27
2022-08-29T20:49:56.551Z,1.27
2022-08-29T20:52:24.498Z,1.45
2022-08-29T20:54:52.494Z,1.50
